This is the latest recevied weather packets stored in our database for station/object N7CW. If no packets are shown the sender has not sent any weather packets the latest 10 day(s).
| Time | Temp. | Humidity | Pressure | Rain* | Wind** | Luminosity | Snow |
|---|---|---|---|---|---|---|---|
| 1777278324 | 2.78° C | 74% | 1013.5 hPa | 0 mm | - | 0 W/m² | - |
| 1777278021 | 3.33° C | 72% | 1013.8 hPa | 0 mm | - | 0 W/m² | - |
| 1777277713 | 3.33° C | 72% | 1013.8 hPa | 0 mm | - | 0 W/m² | - |
| 1777277409 | 2.78° C | 72% | 1013.8 hPa | 0 mm | - | 0 W/m² | - |
| 1777277104 | 3.33° C | 72% | 1013.8 hPa | 0 mm | - | 0 W/m² | - |
| 1777276799 | 2.78° C | 73% | 1013.9 hPa | 0 mm | - | 0 W/m² | - |
| 1777276497 | 2.78° C | 74% | 1013.9 hPa | 0 mm | - | 0 W/m² | - |
| 1777276192 | 3.89° C | 70% | 1013.8 hPa | 0 mm | - | 0 W/m² | - |
| 1777275587 | 4.44° C | 68% | 1014 hPa | 0 mm | - | 0 W/m² | - |
| 1777275284 | 5° C | 68% | 1013.8 hPa | 0 mm | - | 0 W/m² | - |
| 1777274979 | 4.44° C | 68% | 1013.9 hPa | 0 mm | - | 0 W/m² | - |
| 1777274676 | 5° C | 66% | 1013.9 hPa | 0 mm | - | 0 W/m² | - |
| 1777274373 | 5.56° C | 64% | 1013.8 hPa | 0 mm | - | 0 W/m² | - |
| 1777274073 | 6.11° C | 63% | 1013.8 hPa | 0 mm | - | 0 W/m² | - |
| 1777273770 | 6.11° C | 61% | 1013.9 hPa | 0 mm | - | 0 W/m² | - |
| 1777273468 | 6.11° C | 61% | 1014 hPa | 0 mm | - | 0 W/m² | - |
| 1777273166 | 6.67° C | 61% | 1013.9 hPa | 0 mm | - | 0 W/m² | - |
| 1777272862 | 6.67° C | 61% | 1013.9 hPa | 0 mm | - | 0 W/m² | - |
| 1777272560 | 6.67° C | 61% | 1013.9 hPa | 0 mm | - | 0 W/m² | - |
| 1777272258 | 6.67° C | 61% | 1013.9 hPa | 0 mm | - | 0 W/m² | - |
| 1777271955 | 6.67° C | 61% | 1013.9 hPa | 0 mm | - | 0 W/m² | - |
| 1777271655 | 6.67° C | 61% | 1014 hPa | 0 mm | - | 0 W/m² | - |
| 1777271352 | 6.11° C | 61% | 1013.9 hPa | 0 mm | - | 0 W/m² | - |
| 1777271049 | 5.56° C | 63% | 1014 hPa | 0 mm | - | 0 W/m² | - |
| 1777270743 | 5.56° C | 65% | 1013.9 hPa | 0 mm | - | 0 W/m² | - |
* Rain latest hour (hover to see other rain measurements)
** Current wind speed in m/s (hover to see current wind gust speed)